< < Back
Terminal Aerodrome Forecast


Current Version              Previous Versions:   1  2  3  4  5  6  7  8  9  

Terminal Aerodrome Forecast

063
FTUS42 KCHS 302339
TAFSAV
TAF
KSAV 302339Z 3100/3124 09008KT 6SM -RA BR SCT010 BKN015
     FM310300 08008KT P6SM VCSH SCT015 BKN050
     FM310800 VRB04KT 5SM BR SCT006 BKN015
     FM311500 35006KT P6SM SCT015 BKN035
     FM312100 14008KT P6SM FEW020 BKN060=



Latest METAR

057
SAUS80 KWBC 310000
MTRSAV
METAR KSAV 302353Z 11010KT 3SM RA BR BKN010 BKN016 OVC023 24/23 A3006
RMK AO2 RAE06B17 CIG 006V014 SLP178 P0002 60050 T02440233
10256 20233 50004


USA.gov is the U.S. government's official web portal to all federal, state and local government web resources and services.